Naval Air Station Oceana

Airport
ICAO code: 
KNTU
Summary
ICAO Region: 
NAM
Territory: 
Location: 
Virginia Beach, Virginia,
Coordinates: 
Aerial View: 
36° 48' 56.271" N, 76° 1' 55.978" W
Airport LOS: 
Parallel Runway Operation
Metar
Observation
KNTU 040656Z 14004KT 10SM CLR 09/05 A3004 RMK AO2 SLP176 T00940050
Station
Virginia Beach, Oceana, Naval Air Station
Date/Time
2021-12-04 06:56:00
Wind direction
140°
Wind speed
04 kts
Lowest cloud amount
n/a
Temperature
9.4°C
Dew point
5°C
Humidity
73%
Weather condition
n/a

Description

Naval Air Station Oceana or NAS Oceana, also known as Apollo Soucek Field, is a military airport located in Virginia Beach, Virginia.

Climatology

Humid “subtropical” climate (Köppen climate classification Cfa) - characterized by hot, humid summers and cool winters. Significant amounts of precipitation occur in all seasons in most areas. Winter rainfall (and sometimes snowfall) is associated with large storms that the westerlies steer from west to east. Most summer rainfall occurs during thunderstorms and occasional tropical storms (hurricanes).

Runways

Designator Length Width Surface Rops
14L/32R 2438 46 CON Yes/Yes
14R/32L 2438 61 PEM Yes/Yes
05L/23R 2439 46 CON Yes/Yes
05R/23L 3657 61 PEM Yes/Yes
Airport map: 
Aerial View: 

SKYbrary Partners:

Safety knowledge contributed by: